sensor_id;sensor_type;location;lat;lon;timestamp;temperature;humidity
52867;DHT22;38739;53.324;6.862;2022-10-23T00:00:32;10.50;99.90
52867;DHT22;38739;53.324;6.862;2022-10-23T00:02:57;10.40;99.90
52867;DHT22;38739;53.324;6.862;2022-10-23T00:05:25;10.40;99.90
52867;DHT22;38739;53.324;6.862;2022-10-23T00:07:53;10.40;99.90
52867;DHT22;38739;53.324;6.862;2022-10-23T00:10:20;10.40;99.90
52867;DHT22;38739;53.324;6.862;2022-10-23T00:12:47;10.40;99.90
52867;DHT22;38739;53.324;6.862;2022-10-23T00:15:14;10.30;99.90
52867;DHT22;38739;53.324;6.862;2022-10-23T00:17:40;10.30;99.90
52867;DHT22;38739;53.324;6.862;2022-10-23T00:20:07;10.30;99.90
52867;DHT22;38739;53.324;6.862;2022-10-23T00:22:33;10.30;99.90
52867;DHT22;38739;53.324;6.862;2022-10-23T00:24:58;10.30;99.90
52867;DHT22;38739;53.324;6.862;2022-10-23T00:27:25;10.30;99.90
52867;DHT22;38739;53.324;6.862;2022-10-23T00:29:51;10.20;99.90
52867;DHT22;38739;53.324;6.862;2022-10-23T00:32:17;10.20;99.90
52867;DHT22;38739;53.324;6.862;2022-10-23T00:34:42;10.20;99.90
52867;DHT22;38739;53.324;6.862;2022-10-23T00:37:08;10.20;99.90
52867;DHT22;38739;53.324;6.862;2022-10-23T00:39:34;10.20;99.90
52867;DHT22;38739;53.324;6.862;2022-10-23T00:42:00;10.10;99.90
52867;DHT22;38739;53.324;6.862;2022-10-23T00:46:55;10.10;99.90
52867;DHT22;38739;53.324;6.862;2022-10-23T00:49:21;10.20;99.90
52867;DHT22;38739;53.324;6.862;2022-10-23T00:51:52;10.20;99.90
52867;DHT22;38739;53.324;6.862;2022-10-23T00:54:22;10.20;99.90
52867;DHT22;38739;53.324;6.862;2022-10-23T00:56:48;10.10;99.90
52867;DHT22;38739;53.324;6.862;2022-10-23T00:59:14;10.10;99.90
52867;DHT22;38739;53.324;6.862;2022-10-23T01:01:40;10.20;99.90
52867;DHT22;38739;53.324;6.862;2022-10-23T01:04:06;10.10;99.90
52867;DHT22;38739;53.324;6.862;2022-10-23T01:06:44;10.10;99.90
52867;DHT22;38739;53.324;6.862;2022-10-23T01:09:24;10.10;99.90
52867;DHT22;38739;53.324;6.862;2022-10-23T01:12:09;10.10;99.90
52867;DHT22;38739;53.324;6.862;2022-10-23T01:14:52;10.10;99.90
52867;DHT22;38739;53.324;6.862;2022-10-23T01:17:47;10.00;99.90
52867;DHT22;38739;53.324;6.862;2022-10-23T01:28:42;10.00;99.90
52867;DHT22;38739;53.324;6.862;2022-10-23T01:31:10;10.00;99.90
52867;DHT22;38739;53.324;6.862;2022-10-23T01:33:43;10.00;99.90
52867;DHT22;38739;53.324;6.862;2022-10-23T01:36:13;10.00;99.90
52867;DHT22;38739;53.324;6.862;2022-10-23T01:38:56;10.00;99.90
52867;DHT22;38739;53.324;6.862;2022-10-23T01:41:38;10.00;99.90
52867;DHT22;38739;53.324;6.862;2022-10-23T01:44:13;10.00;99.90
52867;DHT22;38739;53.324;6.862;2022-10-23T01:46:41;10.10;99.90
52867;DHT22;38739;53.324;6.862;2022-10-23T01:49:10;10.00;99.90
52867;DHT22;38739;53.324;6.862;2022-10-23T01:51:38;10.10;99.90
52867;DHT22;38739;53.324;6.862;2022-10-23T01:54:08;10.00;99.90
52867;DHT22;38739;53.324;6.862;2022-10-23T01:56:38;10.00;99.90
52867;DHT22;38739;53.324;6.862;2022-10-23T01:59:07;10.00;99.90
52867;DHT22;38739;53.324;6.862;2022-10-23T02:01:35;10.00;99.90
52867;DHT22;38739;53.324;6.862;2022-10-23T02:04:08;10.00;99.90
52867;DHT22;38739;53.324;6.862;2022-10-23T02:06:34;10.00;99.90
52867;DHT22;38739;53.324;6.862;2022-10-23T02:09:00;10.00;99.90
52867;DHT22;38739;53.324;6.862;2022-10-23T02:11:26;10.00;99.90
52867;DHT22;38739;53.324;6.862;2022-10-23T02:13:58;10.00;99.90
52867;DHT22;38739;53.324;6.862;2022-10-23T02:16:41;10.00;99.90
52867;DHT22;38739;53.324;6.862;2022-10-23T02:19:33;10.00;99.90
52867;DHT22;38739;53.324;6.862;2022-10-23T02:24:37;9.90;99.90
52867;DHT22;38739;53.324;6.862;2022-10-23T02:27:10;9.90;99.90
52867;DHT22;38739;53.324;6.862;2022-10-23T02:29:50;9.90;99.90
52867;DHT22;38739;53.324;6.862;2022-10-23T02:32:20;9.90;99.90
52867;DHT22;38739;53.324;6.862;2022-10-23T02:34:46;9.90;99.90
52867;DHT22;38739;53.324;6.862;2022-10-23T02:37:12;9.90;99.90
52867;DHT22;38739;53.324;6.862;2022-10-23T02:39:39;9.90;99.90
52867;DHT22;38739;53.324;6.862;2022-10-23T02:45:07;9.90;99.90
52867;DHT22;38739;53.324;6.862;2022-10-23T02:53:32;9.80;99.90
52867;DHT22;38739;53.324;6.862;2022-10-23T02:56:11;9.80;99.90
52867;DHT22;38739;53.324;6.862;2022-10-23T02:58:50;9.80;99.90
52867;DHT22;38739;53.324;6.862;2022-10-23T03:01:34;9.80;99.90
52867;DHT22;38739;53.324;6.862;2022-10-23T03:04:02;9.80;99.90
52867;DHT22;38739;53.324;6.862;2022-10-23T03:06:28;9.80;99.90
52867;DHT22;38739;53.324;6.862;2022-10-23T03:08:59;9.80;99.90
52867;DHT22;38739;53.324;6.862;2022-10-23T03:11:25;9.80;99.90
52867;DHT22;38739;53.324;6.862;2022-10-23T03:13:51;9.70;99.90
52867;DHT22;38739;53.324;6.862;2022-10-23T03:16:16;9.80;99.90
52867;DHT22;38739;53.324;6.862;2022-10-23T03:18:42;9.80;99.90
52867;DHT22;38739;53.324;6.862;2022-10-23T03:21:08;9.80;99.90
52867;DHT22;38739;53.324;6.862;2022-10-23T03:23:34;9.80;99.90
52867;DHT22;38739;53.324;6.862;2022-10-23T03:25:59;9.80;99.90
52867;DHT22;38739;53.324;6.862;2022-10-23T03:28:25;9.80;99.90
52867;DHT22;38739;53.324;6.862;2022-10-23T03:30:51;9.80;99.90
52867;DHT22;38739;53.324;6.862;2022-10-23T03:33:17;9.80;99.90
52867;DHT22;38739;53.324;6.862;2022-10-23T03:35:43;9.80;99.90
52867;DHT22;38739;53.324;6.862;2022-10-23T03:38:09;9.80;99.90
52867;DHT22;38739;53.324;6.862;2022-10-23T03:40:34;9.80;99.90
52867;DHT22;38739;53.324;6.862;2022-10-23T03:43:00;9.90;99.90
52867;DHT22;38739;53.324;6.862;2022-10-23T03:45:26;9.80;99.90
52867;DHT22;38739;53.324;6.862;2022-10-23T03:47:51;9.90;99.90
52867;DHT22;38739;53.324;6.862;2022-10-23T03:50:18;9.90;99.90
52867;DHT22;38739;53.324;6.862;2022-10-23T03:52:44;9.90;99.90
52867;DHT22;38739;53.324;6.862;2022-10-23T03:55:10;9.90;99.90
52867;DHT22;38739;53.324;6.862;2022-10-23T03:57:36;9.90;99.90
52867;DHT22;38739;53.324;6.862;2022-10-23T04:00:02;10.00;99.90
52867;DHT22;38739;53.324;6.862;2022-10-23T04:02:28;10.00;99.90
52867;DHT22;38739;53.324;6.862;2022-10-23T04:04:54;10.00;99.90
52867;DHT22;38739;53.324;6.862;2022-10-23T04:07:20;10.00;99.90
52867;DHT22;38739;53.324;6.862;2022-10-23T04:09:45;10.00;99.90
52867;DHT22;38739;53.324;6.862;2022-10-23T04:12:11;10.00;99.90
52867;DHT22;38739;53.324;6.862;2022-10-23T04:14:37;10.00;99.90
52867;DHT22;38739;53.324;6.862;2022-10-23T04:17:02;10.00;99.90
52867;DHT22;38739;53.324;6.862;2022-10-23T04:19:28;10.00;99.90
52867;DHT22;38739;53.324;6.862;2022-10-23T04:21:54;10.00;99.90
52867;DHT22;38739;53.324;6.862;2022-10-23T04:24:19;10.00;99.90
52867;DHT22;38739;53.324;6.862;2022-10-23T04:26:45;10.00;99.90
52867;DHT22;38739;53.324;6.862;2022-10-23T04:29:11;10.00;99.90
52867;DHT22;38739;53.324;6.862;2022-10-23T04:31:36;10.00;99.90
52867;DHT22;38739;53.324;6.862;2022-10-23T04:34:02;10.00;99.90
52867;DHT22;38739;53.324;6.862;2022-10-23T04:36:28;10.00;99.90
52867;DHT22;38739;53.324;6.862;2022-10-23T04:38:53;10.00;99.90
52867;DHT22;38739;53.324;6.862;2022-10-23T04:41:19;9.90;99.90
52867;DHT22;38739;53.324;6.862;2022-10-23T04:43:45;9.90;99.90
52867;DHT22;38739;53.324;6.862;2022-10-23T04:46:10;10.00;99.90
52867;DHT22;38739;53.324;6.862;2022-10-23T04:48:36;10.00;99.90
52867;DHT22;38739;53.324;6.862;2022-10-23T04:51:04;9.90;99.90
52867;DHT22;38739;53.324;6.862;2022-10-23T04:53:31;9.90;99.90
52867;DHT22;38739;53.324;6.862;2022-10-23T04:55:57;9.90;99.90
52867;DHT22;38739;53.324;6.862;2022-10-23T04:58:25;9.90;99.90
52867;DHT22;38739;53.324;6.862;2022-10-23T05:00:52;9.90;99.90
52867;DHT22;38739;53.324;6.862;2022-10-23T05:03:20;9.90;99.90
52867;DHT22;38739;53.324;6.862;2022-10-23T05:05:46;10.00;99.90
52867;DHT22;38739;53.324;6.862;2022-10-23T05:08:12;10.00;99.90
52867;DHT22;38739;53.324;6.862;2022-10-23T05:10:38;10.00;99.90
52867;DHT22;38739;53.324;6.862;2022-10-23T05:13:06;10.00;99.90
52867;DHT22;38739;53.324;6.862;2022-10-23T05:15:31;10.00;99.90
52867;DHT22;38739;53.324;6.862;2022-10-23T05:18:06;10.00;99.90
52867;DHT22;38739;53.324;6.862;2022-10-23T05:20:35;10.00;99.90
52867;DHT22;38739;53.324;6.862;2022-10-23T05:23:02;10.00;99.90
52867;DHT22;38739;53.324;6.862;2022-10-23T05:25:31;10.00;99.90
52867;DHT22;38739;53.324;6.862;2022-10-23T05:27:56;10.00;99.90
52867;DHT22;38739;53.324;6.862;2022-10-23T05:30:22;10.00;99.90
52867;DHT22;38739;53.324;6.862;2022-10-23T05:32:48;9.90;99.90
52867;DHT22;38739;53.324;6.862;2022-10-23T05:35:18;9.90;99.90
52867;DHT22;38739;53.324;6.862;2022-10-23T05:37:47;9.90;99.90
52867;DHT22;38739;53.324;6.862;2022-10-23T05:40:14;9.90;99.90
52867;DHT22;38739;53.324;6.862;2022-10-23T05:42:40;9.90;99.90
52867;DHT22;38739;53.324;6.862;2022-10-23T05:45:06;9.90;99.90
52867;DHT22;38739;53.324;6.862;2022-10-23T05:47:32;9.90;99.90
52867;DHT22;38739;53.324;6.862;2022-10-23T05:49:57;9.90;99.90
52867;DHT22;38739;53.324;6.862;2022-10-23T05:52:23;9.90;99.90
52867;DHT22;38739;53.324;6.862;2022-10-23T05:54:52;9.90;99.90
52867;DHT22;38739;53.324;6.862;2022-10-23T05:57:17;9.90;99.90
52867;DHT22;38739;53.324;6.862;2022-10-23T05:59:43;9.90;99.90
52867;DHT22;38739;53.324;6.862;2022-10-23T06:02:09;9.90;99.90
52867;DHT22;38739;53.324;6.862;2022-10-23T06:04:35;9.90;99.90
52867;DHT22;38739;53.324;6.862;2022-10-23T06:07:01;9.90;99.90
52867;DHT22;38739;53.324;6.862;2022-10-23T06:09:27;9.90;99.90
52867;DHT22;38739;53.324;6.862;2022-10-23T06:11:53;9.90;99.90
52867;DHT22;38739;53.324;6.862;2022-10-23T06:14:18;9.90;99.90
52867;DHT22;38739;53.324;6.862;2022-10-23T06:16:44;9.90;99.90
52867;DHT22;38739;53.324;6.862;2022-10-23T06:19:11;9.90;99.90
52867;DHT22;38739;53.324;6.862;2022-10-23T06:21:37;9.90;99.90
52867;DHT22;38739;53.324;6.862;2022-10-23T06:24:04;9.90;99.90
52867;DHT22;38739;53.324;6.862;2022-10-23T06:26:30;9.90;99.90
52867;DHT22;38739;53.324;6.862;2022-10-23T06:28:56;9.90;99.90
52867;DHT22;38739;53.324;6.862;2022-10-23T06:31:23;9.90;99.90
52867;DHT22;38739;53.324;6.862;2022-10-23T06:33:54;9.90;99.90
52867;DHT22;38739;53.324;6.862;2022-10-23T06:36:19;10.00;99.90
52867;DHT22;38739;53.324;6.862;2022-10-23T06:38:45;10.00;99.90
52867;DHT22;38739;53.324;6.862;2022-10-23T06:41:21;10.00;99.90
52867;DHT22;38739;53.324;6.862;2022-10-23T06:43:48;10.00;99.90
52867;DHT22;38739;53.324;6.862;2022-10-23T06:46:14;10.00;99.90
52867;DHT22;38739;53.324;6.862;2022-10-23T06:48:43;10.00;99.90
52867;DHT22;38739;53.324;6.862;2022-10-23T06:51:11;10.10;99.90
52867;DHT22;38739;53.324;6.862;2022-10-23T06:53:37;10.10;99.90
52867;DHT22;38739;53.324;6.862;2022-10-23T06:56:05;10.10;99.90
52867;DHT22;38739;53.324;6.862;2022-10-23T06:58:31;10.10;99.90
52867;DHT22;38739;53.324;6.862;2022-10-23T07:01:02;10.10;99.90
52867;DHT22;38739;53.324;6.862;2022-10-23T07:03:29;10.10;99.90
52867;DHT22;38739;53.324;6.862;2022-10-23T07:06:02;10.20;99.90
52867;DHT22;38739;53.324;6.862;2022-10-23T07:08:28;10.20;99.90
52867;DHT22;38739;53.324;6.862;2022-10-23T07:10:53;10.20;99.90
52867;DHT22;38739;53.324;6.862;2022-10-23T07:13:19;10.20;99.90
52867;DHT22;38739;53.324;6.862;2022-10-23T07:15:46;10.30;99.90
52867;DHT22;38739;53.324;6.862;2022-10-23T07:18:12;10.20;99.90
52867;DHT22;38739;53.324;6.862;2022-10-23T07:20:41;10.30;99.90
52867;DHT22;38739;53.324;6.862;2022-10-23T07:23:08;10.30;99.90
52867;DHT22;38739;53.324;6.862;2022-10-23T07:25:35;10.30;99.90
52867;DHT22;38739;53.324;6.862;2022-10-23T07:28:01;10.40;99.90
52867;DHT22;38739;53.324;6.862;2022-10-23T07:30:27;10.40;99.90
52867;DHT22;38739;53.324;6.862;2022-10-23T07:32:55;10.40;99.90
52867;DHT22;38739;53.324;6.862;2022-10-23T07:35:20;10.40;99.90
52867;DHT22;38739;53.324;6.862;2022-10-23T07:37:46;10.50;99.90
52867;DHT22;38739;53.324;6.862;2022-10-23T07:40:13;10.50;99.90
52867;DHT22;38739;53.324;6.862;2022-10-23T07:42:39;10.60;99.90
52867;DHT22;38739;53.324;6.862;2022-10-23T07:45:05;10.60;99.90
52867;DHT22;38739;53.324;6.862;2022-10-23T07:47:32;10.60;99.90
52867;DHT22;38739;53.324;6.862;2022-10-23T07:49:58;10.70;99.90
52867;DHT22;38739;53.324;6.862;2022-10-23T07:52:23;10.70;99.90
52867;DHT22;38739;53.324;6.862;2022-10-23T07:54:52;10.80;99.90
52867;DHT22;38739;53.324;6.862;2022-10-23T07:57:19;10.80;99.90
52867;DHT22;38739;53.324;6.862;2022-10-23T07:59:45;10.80;99.90
52867;DHT22;38739;53.324;6.862;2022-10-23T08:02:15;10.90;99.90
52867;DHT22;38739;53.324;6.862;2022-10-23T08:04:41;10.90;99.90
52867;DHT22;38739;53.324;6.862;2022-10-23T08:07:06;11.00;99.90
52867;DHT22;38739;53.324;6.862;2022-10-23T08:09:32;11.00;99.90
52867;DHT22;38739;53.324;6.862;2022-10-23T08:11:59;11.00;99.90
52867;DHT22;38739;53.324;6.862;2022-10-23T08:14:26;11.10;99.90
52867;DHT22;38739;53.324;6.862;2022-10-23T08:16:51;11.10;99.90
52867;DHT22;38739;53.324;6.862;2022-10-23T08:19:17;11.20;99.90
52867;DHT22;38739;53.324;6.862;2022-10-23T08:21:43;11.20;99.90
52867;DHT22;38739;53.324;6.862;2022-10-23T08:24:09;11.30;99.90
52867;DHT22;38739;53.324;6.862;2022-10-23T08:26:38;11.30;99.90
52867;DHT22;38739;53.324;6.862;2022-10-23T08:29:04;11.40;99.90
52867;DHT22;38739;53.324;6.862;2022-10-23T08:31:29;11.50;99.90
52867;DHT22;38739;53.324;6.862;2022-10-23T08:33:56;11.50;99.90
52867;DHT22;38739;53.324;6.862;2022-10-23T08:36:25;11.60;99.90
52867;DHT22;38739;53.324;6.862;2022-10-23T08:38:53;11.70;99.90
52867;DHT22;38739;53.324;6.862;2022-10-23T08:41:32;11.80;99.90
52867;DHT22;38739;53.324;6.862;2022-10-23T08:44:22;11.90;99.90
52867;DHT22;38739;53.324;6.862;2022-10-23T08:49:42;12.10;99.90
52867;DHT22;38739;53.324;6.862;2022-10-23T08:55:44;12.20;99.90
52867;DHT22;38739;53.324;6.862;2022-10-23T08:58:06;12.30;99.90
52867;DHT22;38739;53.324;6.862;2022-10-23T09:00:32;12.30;99.90
52867;DHT22;38739;53.324;6.862;2022-10-23T09:03:01;12.30;99.90
52867;DHT22;38739;53.324;6.862;2022-10-23T09:06:03;12.40;99.90
52867;DHT22;38739;53.324;6.862;2022-10-23T09:19:14;12.80;99.90
52867;DHT22;38739;53.324;6.862;2022-10-23T09:21:40;12.90;99.90
52867;DHT22;38739;53.324;6.862;2022-10-23T09:24:14;13.00;99.90
52867;DHT22;38739;53.324;6.862;2022-10-23T09:26:44;13.10;99.90
52867;DHT22;38739;53.324;6.862;2022-10-23T09:29:31;13.20;99.90
52867;DHT22;38739;53.324;6.862;2022-10-23T09:32:02;13.30;99.90
52867;DHT22;38739;53.324;6.862;2022-10-23T09:34:31;13.40;99.90
52867;DHT22;38739;53.324;6.862;2022-10-23T09:37:02;13.60;99.90
52867;DHT22;38739;53.324;6.862;2022-10-23T09:39:33;13.70;99.90
52867;DHT22;38739;53.324;6.862;2022-10-23T09:42:12;13.90;99.90
52867;DHT22;38739;53.324;6.862;2022-10-23T09:44:47;14.10;99.90
52867;DHT22;38739;53.324;6.862;2022-10-23T09:47:21;14.30;99.90
52867;DHT22;38739;53.324;6.862;2022-10-23T09:49:51;14.40;99.90
52867;DHT22;38739;53.324;6.862;2022-10-23T09:54:57;14.60;99.90
52867;DHT22;38739;53.324;6.862;2022-10-23T10:00:03;14.80;99.90
52867;DHT22;38739;53.324;6.862;2022-10-23T10:02:30;14.90;99.90
52867;DHT22;38739;53.324;6.862;2022-10-23T10:04:57;14.90;99.90
52867;DHT22;38739;53.324;6.862;2022-10-23T10:07:26;15.00;99.90
52867;DHT22;38739;53.324;6.862;2022-10-23T10:09:53;15.10;99.90
52867;DHT22;38739;53.324;6.862;2022-10-23T10:20:40;15.30;99.90
52867;DHT22;38739;53.324;6.862;2022-10-23T10:26:07;15.50;99.90
52867;DHT22;38739;53.324;6.862;2022-10-23T10:28:49;15.60;99.90
52867;DHT22;38739;53.324;6.862;2022-10-23T10:36:50;16.00;99.90
52867;DHT22;38739;53.324;6.862;2022-10-23T10:39:36;16.10;99.90
52867;DHT22;38739;53.324;6.862;2022-10-23T10:47:25;16.40;99.90
52867;DHT22;38739;53.324;6.862;2022-10-23T10:55:41;16.70;99.90
52867;DHT22;38739;53.324;6.862;2022-10-23T10:58:11;16.90;99.90
52867;DHT22;38739;53.324;6.862;2022-10-23T11:00:38;16.90;99.90
52867;DHT22;38739;53.324;6.862;2022-10-23T11:03:25;17.00;99.90
52867;DHT22;38739;53.324;6.862;2022-10-23T11:05:53;17.10;99.90
52867;DHT22;38739;53.324;6.862;2022-10-23T11:11:01;17.10;99.90
52867;DHT22;38739;53.324;6.862;2022-10-23T11:13:35;17.10;99.90
52867;DHT22;38739;53.324;6.862;2022-10-23T11:16:47;17.10;99.90
52867;DHT22;38739;53.324;6.862;2022-10-23T11:38:27;16.50;99.90
52867;DHT22;38739;53.324;6.862;2022-10-23T11:40:57;16.50;99.90
52867;DHT22;38739;53.324;6.862;2022-10-23T11:45:52;16.50;99.90
52867;DHT22;38739;53.324;6.862;2022-10-23T11:48:21;16.50;99.90
52867;DHT22;38739;53.324;6.862;2022-10-23T11:50:48;16.50;99.90
52867;DHT22;38739;53.324;6.862;2022-10-23T11:55:58;16.50;99.90
52867;DHT22;38739;53.324;6.862;2022-10-23T12:03:59;16.40;99.90
52867;DHT22;38739;53.324;6.862;2022-10-23T12:06:31;16.40;99.90
52867;DHT22;38739;53.324;6.862;2022-10-23T12:09:03;16.40;99.90
52867;DHT22;38739;53.324;6.862;2022-10-23T12:11:46;16.40;99.90
52867;DHT22;38739;53.324;6.862;2022-10-23T12:14:24;16.30;99.90
52867;DHT22;38739;53.324;6.862;2022-10-23T12:16:50;16.30;99.90
52867;DHT22;38739;53.324;6.862;2022-10-23T12:19:21;16.30;99.90
52867;DHT22;38739;53.324;6.862;2022-10-23T12:21:50;16.20;99.90
52867;DHT22;38739;53.324;6.862;2022-10-23T12:24:31;16.20;99.90
52867;DHT22;38739;53.324;6.862;2022-10-23T12:29:47;16.20;99.90
52867;DHT22;38739;53.324;6.862;2022-10-23T12:35:20;16.10;99.90
52867;DHT22;38739;53.324;6.862;2022-10-23T12:40:29;16.10;99.90
52867;DHT22;38739;53.324;6.862;2022-10-23T12:42:57;16.10;99.90
52867;DHT22;38739;53.324;6.862;2022-10-23T12:45:30;16.10;99.90
52867;DHT22;38739;53.324;6.862;2022-10-23T12:47:57;16.10;99.90
52867;DHT22;38739;53.324;6.862;2022-10-23T12:50:26;16.10;99.90
52867;DHT22;38739;53.324;6.862;2022-10-23T12:55:25;16.20;99.90
52867;DHT22;38739;53.324;6.862;2022-10-23T12:57:52;16.20;99.90
52867;DHT22;38739;53.324;6.862;2022-10-23T13:00:23;16.20;99.90
52867;DHT22;38739;53.324;6.862;2022-10-23T13:03:00;16.20;99.90
52867;DHT22;38739;53.324;6.862;2022-10-23T13:05:27;16.20;99.90
52867;DHT22;38739;53.324;6.862;2022-10-23T13:07:53;16.30;99.90
52867;DHT22;38739;53.324;6.862;2022-10-23T13:10:22;16.30;99.90
52867;DHT22;38739;53.324;6.862;2022-10-23T13:12:57;16.20;99.90
52867;DHT22;38739;53.324;6.862;2022-10-23T13:15:24;16.20;99.90
52867;DHT22;38739;53.324;6.862;2022-10-23T13:20:21;16.20;99.90
52867;DHT22;38739;53.324;6.862;2022-10-23T13:22:52;16.30;99.90
52867;DHT22;38739;53.324;6.862;2022-10-23T13:25:25;16.30;99.90
52867;DHT22;38739;53.324;6.862;2022-10-23T13:30:37;16.30;99.90
52867;DHT22;38739;53.324;6.862;2022-10-23T13:33:21;16.30;99.90
52867;DHT22;38739;53.324;6.862;2022-10-23T13:36:21;16.30;99.90
52867;DHT22;38739;53.324;6.862;2022-10-23T13:41:27;16.30;99.90
52867;DHT22;38739;53.324;6.862;2022-10-23T13:43:53;16.30;99.90
52867;DHT22;38739;53.324;6.862;2022-10-23T13:46:21;16.30;99.90
52867;DHT22;38739;53.324;6.862;2022-10-23T13:48:47;16.30;99.90
52867;DHT22;38739;53.324;6.862;2022-10-23T13:51:34;16.40;99.90
52867;DHT22;38739;53.324;6.862;2022-10-23T13:54:01;16.40;99.90
52867;DHT22;38739;53.324;6.862;2022-10-23T13:56:27;16.40;99.90
52867;DHT22;38739;53.324;6.862;2022-10-23T13:58:53;16.40;99.90
52867;DHT22;38739;53.324;6.862;2022-10-23T14:03:49;16.40;99.90
52867;DHT22;38739;53.324;6.862;2022-10-23T14:06:15;16.40;99.90
52867;DHT22;38739;53.324;6.862;2022-10-23T14:08:41;16.40;99.90
52867;DHT22;38739;53.324;6.862;2022-10-23T14:11:07;16.30;99.90
52867;DHT22;38739;53.324;6.862;2022-10-23T14:13:33;16.30;99.90
52867;DHT22;38739;53.324;6.862;2022-10-23T14:15:59;16.30;99.90
52867;DHT22;38739;53.324;6.862;2022-10-23T14:18:24;16.30;99.90
52867;DHT22;38739;53.324;6.862;2022-10-23T14:20:50;16.30;99.90
52867;DHT22;38739;53.324;6.862;2022-10-23T14:23:16;16.30;99.90
52867;DHT22;38739;53.324;6.862;2022-10-23T14:25:42;16.20;99.90
52867;DHT22;38739;53.324;6.862;2022-10-23T14:28:08;16.20;99.90
52867;DHT22;38739;53.324;6.862;2022-10-23T14:30:35;16.20;99.90
52867;DHT22;38739;53.324;6.862;2022-10-23T14:33:02;16.20;99.90
52867;DHT22;38739;53.324;6.862;2022-10-23T14:35:27;16.10;99.90
52867;DHT22;38739;53.324;6.862;2022-10-23T14:37:53;16.10;99.90
52867;DHT22;38739;53.324;6.862;2022-10-23T14:40:19;16.10;99.90
52867;DHT22;38739;53.324;6.862;2022-10-23T14:42:45;16.10;99.90
52867;DHT22;38739;53.324;6.862;2022-10-23T14:45:10;16.10;99.90
52867;DHT22;38739;53.324;6.862;2022-10-23T14:47:36;16.00;99.90
52867;DHT22;38739;53.324;6.862;2022-10-23T14:50:02;16.00;99.90
52867;DHT22;38739;53.324;6.862;2022-10-23T14:52:28;16.00;99.90
52867;DHT22;38739;53.324;6.862;2022-10-23T14:54:54;16.00;99.90
52867;DHT22;38739;53.324;6.862;2022-10-23T14:57:20;16.00;99.90
52867;DHT22;38739;53.324;6.862;2022-10-23T14:59:47;16.00;99.90
52867;DHT22;38739;53.324;6.862;2022-10-23T15:02:14;16.00;99.90
52867;DHT22;38739;53.324;6.862;2022-10-23T15:04:39;16.00;99.90
52867;DHT22;38739;53.324;6.862;2022-10-23T15:07:05;16.00;99.90
52867;DHT22;38739;53.324;6.862;2022-10-23T15:09:31;16.00;99.90
52867;DHT22;38739;53.324;6.862;2022-10-23T15:11:59;16.00;99.90
52867;DHT22;38739;53.324;6.862;2022-10-23T15:14:25;16.00;99.90
52867;DHT22;38739;53.324;6.862;2022-10-23T15:16:51;16.00;99.90
52867;DHT22;38739;53.324;6.862;2022-10-23T15:19:17;16.00;99.90
52867;DHT22;38739;53.324;6.862;2022-10-23T15:21:42;15.90;99.90
52867;DHT22;38739;53.324;6.862;2022-10-23T15:24:08;16.00;99.90
52867;DHT22;38739;53.324;6.862;2022-10-23T15:26:34;15.90;99.90
52867;DHT22;38739;53.324;6.862;2022-10-23T15:29:01;15.90;99.90
52867;DHT22;38739;53.324;6.862;2022-10-23T15:34:16;15.80;99.90
52867;DHT22;38739;53.324;6.862;2022-10-23T15:36:43;15.80;99.90
52867;DHT22;38739;53.324;6.862;2022-10-23T15:39:10;15.80;99.90
52867;DHT22;38739;53.324;6.862;2022-10-23T15:41:38;15.80;99.90
52867;DHT22;38739;53.324;6.862;2022-10-23T15:44:05;15.80;99.90
52867;DHT22;38739;53.324;6.862;2022-10-23T15:46:31;15.70;99.90
52867;DHT22;38739;53.324;6.862;2022-10-23T15:48:57;15.70;99.90
52867;DHT22;38739;53.324;6.862;2022-10-23T15:51:23;15.70;99.90
52867;DHT22;38739;53.324;6.862;2022-10-23T15:53:49;15.60;99.90
52867;DHT22;38739;53.324;6.862;2022-10-23T15:56:14;15.60;99.90
52867;DHT22;38739;53.324;6.862;2022-10-23T15:58:40;15.60;99.90
52867;DHT22;38739;53.324;6.862;2022-10-23T16:01:06;15.60;99.90
52867;DHT22;38739;53.324;6.862;2022-10-23T16:03:33;15.60;99.90
52867;DHT22;38739;53.324;6.862;2022-10-23T16:06:02;15.50;99.90
52867;DHT22;38739;53.324;6.862;2022-10-23T16:08:28;15.50;99.90
52867;DHT22;38739;53.324;6.862;2022-10-23T16:10:54;15.50;99.90
52867;DHT22;38739;53.324;6.862;2022-10-23T16:13:20;15.50;99.90
52867;DHT22;38739;53.324;6.862;2022-10-23T16:15:45;15.40;99.90
52867;DHT22;38739;53.324;6.862;2022-10-23T16:18:11;15.40;99.90
52867;DHT22;38739;53.324;6.862;2022-10-23T16:20:41;15.40;99.90
52867;DHT22;38739;53.324;6.862;2022-10-23T16:23:06;15.40;99.90
52867;DHT22;38739;53.324;6.862;2022-10-23T16:25:35;15.30;99.90
52867;DHT22;38739;53.324;6.862;2022-10-23T16:28:01;15.30;99.90
52867;DHT22;38739;53.324;6.862;2022-10-23T16:30:27;15.30;99.90
52867;DHT22;38739;53.324;6.862;2022-10-23T16:32:53;15.30;99.90
52867;DHT22;38739;53.324;6.862;2022-10-23T16:35:20;15.30;99.90
52867;DHT22;38739;53.324;6.862;2022-10-23T16:37:46;15.30;99.90
52867;DHT22;38739;53.324;6.862;2022-10-23T16:40:12;15.20;99.90
52867;DHT22;38739;53.324;6.862;2022-10-23T16:42:37;15.20;99.90
52867;DHT22;38739;53.324;6.862;2022-10-23T16:45:05;15.20;99.90
52867;DHT22;38739;53.324;6.862;2022-10-23T16:47:31;15.20;99.90
52867;DHT22;38739;53.324;6.862;2022-10-23T16:49:57;15.20;99.90
52867;DHT22;38739;53.324;6.862;2022-10-23T16:52:24;15.20;99.90
52867;DHT22;38739;53.324;6.862;2022-10-23T16:54:50;15.20;99.90
52867;DHT22;38739;53.324;6.862;2022-10-23T16:57:16;15.20;99.90
52867;DHT22;38739;53.324;6.862;2022-10-23T16:59:42;15.10;99.90
52867;DHT22;38739;53.324;6.862;2022-10-23T17:02:09;15.10;99.90
52867;DHT22;38739;53.324;6.862;2022-10-23T17:04:35;15.10;99.90
52867;DHT22;38739;53.324;6.862;2022-10-23T17:07:02;15.00;99.90
52867;DHT22;38739;53.324;6.862;2022-10-23T17:09:27;15.00;99.90
52867;DHT22;38739;53.324;6.862;2022-10-23T17:11:56;15.00;99.90
52867;DHT22;38739;53.324;6.862;2022-10-23T17:14:22;15.00;99.90
52867;DHT22;38739;53.324;6.862;2022-10-23T17:16:54;14.90;99.90
52867;DHT22;38739;53.324;6.862;2022-10-23T17:19:23;14.90;99.90
52867;DHT22;38739;53.324;6.862;2022-10-23T17:21:49;14.80;99.90
52867;DHT22;38739;53.324;6.862;2022-10-23T17:24:15;14.80;99.90
52867;DHT22;38739;53.324;6.862;2022-10-23T17:26:41;14.80;99.90
52867;DHT22;38739;53.324;6.862;2022-10-23T17:29:08;14.80;99.90
52867;DHT22;38739;53.324;6.862;2022-10-23T17:31:40;14.80;99.90
52867;DHT22;38739;53.324;6.862;2022-10-23T17:34:09;14.70;99.90
52867;DHT22;38739;53.324;6.862;2022-10-23T17:36:41;14.70;99.90
52867;DHT22;38739;53.324;6.862;2022-10-23T17:39:12;14.70;99.90
52867;DHT22;38739;53.324;6.862;2022-10-23T17:41:38;14.70;99.90
52867;DHT22;38739;53.324;6.862;2022-10-23T17:44:04;14.60;99.90
52867;DHT22;38739;53.324;6.862;2022-10-23T17:46:30;14.60;99.90
52867;DHT22;38739;53.324;6.862;2022-10-23T17:48:57;14.60;99.90